Time;durP1;ratioP1;P1;durP2;ratioP2;P2;SDS_P1;SDS_P2;PMS_P1;PMS_P2;Temp;Humidity;BMP_temperature;BMP_pressure;BME280_temperature;BME280_humidity;BME280_pressure;Samples;Min_cycle;Max_cycle;Signal;HPM_P1;HPM_P2
2022/08/27 00:00:51;;;;;;;22.07;19.97;;;21.00;99.90;;;;;;5033025;28;20246;-69
2022/08/27 00:03:17;;;;;;;24.40;22.20;;;21.10;99.90;;;;;;5032721;28;20195;-69
2022/08/27 00:05:43;;;;;;;24.93;22.33;;;21.10;99.90;;;;;;5032543;28;20178;-69
2022/08/27 00:08:11;;;;;;;25.53;22.90;;;21.10;99.90;;;;;;5033128;28;20788;-68
2022/08/27 00:10:37;;;;;;;24.50;22.17;;;21.20;99.90;;;;;;5032797;28;20180;-68
2022/08/27 00:13:03;;;;;;;29.30;26.40;;;21.20;99.90;;;;;;5032784;28;20398;-69
2022/08/27 00:15:30;;;;;;;31.47;27.90;;;21.10;99.90;;;;;;5032197;28;20402;-68
2022/08/27 00:17:56;;;;;;;31.50;28.30;;;21.10;99.90;;;;;;5032760;28;20283;-68
2022/08/27 00:20:24;;;;;;;28.83;26.07;;;21.10;99.90;;;;;;5032810;28;20547;-68
2022/08/27 00:22:51;;;;;;;26.53;24.03;;;21.10;99.90;;;;;;5033022;28;20505;-69
2022/08/27 00:25:17;;;;;;;24.03;21.70;;;21.20;99.90;;;;;;5032640;28;20414;-68
2022/08/27 00:27:42;;;;;;;31.63;25.30;;;21.20;99.90;;;;;;5032802;28;20805;-69
2022/08/27 00:30:12;;;;;;;25.63;23.10;;;21.20;99.90;;;;;;5030400;28;20174;-69
2022/08/27 00:32:39;;;;;;;31.43;28.23;;;21.20;99.90;;;;;;5021593;28;20660;-70
2022/08/27 00:35:06;;;;;;;28.40;25.67;;;21.30;99.90;;;;;;5031683;28;20425;-69
2022/08/27 00:37:32;;;;;;;28.93;26.23;;;21.30;99.90;;;;;;5033126;28;20469;-69
2022/08/27 00:39:57;;;;;;;29.07;26.20;;;21.30;99.90;;;;;;5032926;28;20452;-69
2022/08/27 00:42:23;;;;;;;29.03;26.17;;;21.20;99.90;;;;;;5031999;28;20969;-68
2022/08/27 00:44:48;;;;;;;27.30;24.50;;;21.30;99.90;;;;;;5032172;28;20660;-69
2022/08/27 00:47:20;;;;;;;29.43;26.03;;;21.30;99.90;;;;;;5032386;28;20217;-69
2022/08/27 00:49:51;;;;;;;30.13;27.37;;;21.40;99.90;;;;;;5032257;28;20511;-69
2022/08/27 00:52:43;;;;;;;28.03;25.10;;;21.40;99.90;;;;;;5032792;28;20775;-69
2022/08/27 00:55:15;;;;;;;26.30;23.90;;;21.50;99.90;;;;;;5032380;28;20399;-69
2022/08/27 00:57:44;;;;;;;28.77;25.93;;;21.50;99.90;;;;;;5032610;28;20441;-69
2022/08/27 01:00:16;;;;;;;25.93;23.30;;;21.50;99.90;;;;;;5032438;28;20455;-69
2022/08/27 01:02:42;;;;;;;30.63;27.40;;;21.50;99.90;;;;;;5033012;28;20390;-69
2022/08/27 01:05:19;;;;;;;27.53;24.80;;;21.50;99.90;;;;;;5032177;28;20464;-69
2022/08/27 01:07:48;;;;;;;30.50;27.70;;;21.50;99.90;;;;;;5032676;28;20229;-69
2022/08/27 01:10:19;;;;;;;27.67;24.97;;;21.60;99.90;;;;;;5032200;28;20410;-69
2022/08/27 01:12:46;;;;;;;29.00;26.13;;;21.60;99.90;;;;;;5032908;28;20449;-69
2022/08/27 01:15:14;;;;;;;28.63;25.90;;;21.50;99.90;;;;;;5032621;28;20763;-69
2022/08/27 01:17:42;;;;;;;27.37;24.73;;;21.50;99.90;;;;;;5032478;28;20422;-69
2022/08/27 01:20:14;;;;;;;29.13;26.30;;;21.40;99.90;;;;;;5032064;28;20896;-69
2022/08/27 01:23:08;;;;;;;29.90;27.13;;;21.30;99.90;;;;;;5032801;28;20398;-68
2022/08/27 01:25:34;;;;;;;30.10;26.97;;;21.30;99.90;;;;;;5032768;28;20391;-69
2022/08/27 01:28:02;;;;;;;39.50;35.27;;;21.30;99.90;;;;;;5035892;28;20417;-69
2022/08/27 01:30:30;;;;;;;29.63;26.70;;;21.20;99.90;;;;;;5035807;28;20175;-70
2022/08/27 01:32:55;;;;;;;29.90;26.77;;;21.20;99.90;;;;;;5035911;28;20402;-69
2022/08/27 01:35:22;;;;;;;29.20;26.30;;;21.10;99.90;;;;;;5034638;28;20440;-68
2022/08/27 01:37:50;;;;;;;29.33;26.47;;;21.20;99.90;;;;;;5035947;28;20699;-69
2022/08/27 01:40:18;;;;;;;29.07;26.17;;;21.20;99.90;;;;;;5035755;28;20516;-69
2022/08/27 01:42:46;;;;;;;28.20;25.40;;;21.20;99.90;;;;;;5035970;28;20409;-69
2022/08/27 01:45:17;;;;;;;27.43;24.67;;;21.20;99.90;;;;;;5035468;28;20781;-68
2022/08/27 01:47:42;;;;;;;27.37;24.87;;;21.20;99.90;;;;;;5035570;28;20856;-69
2022/08/27 01:50:15;;;;;;;31.53;28.67;;;21.20;99.90;;;;;;5034926;28;20449;-69
2022/08/27 01:52:41;;;;;;;30.90;27.70;;;21.20;99.90;;;;;;5035630;28;20178;-69
2022/08/27 01:55:10;;;;;;;28.90;25.97;;;21.20;99.90;;;;;;5035336;28;20408;-68
2022/08/27 01:57:36;;;;;;;30.97;28.03;;;21.20;99.90;;;;;;5035177;28;20946;-69
2022/08/27 02:00:10;;;;;;;31.93;28.73;;;21.10;99.90;;;;;;5035525;28;20434;-69
2022/08/27 02:02:36;;;;;;;30.80;27.83;;;21.00;99.90;;;;;;5035593;28;20397;-69
2022/08/27 02:05:02;;;;;;;32.80;29.27;;;21.00;99.90;;;;;;5034819;28;20449;-69
2022/08/27 02:07:28;;;;;;;30.17;27.07;;;21.00;99.90;;;;;;5035379;28;20219;-69
2022/08/27 02:09:53;;;;;;;31.60;28.47;;;21.00;99.90;;;;;;5035093;28;20445;-68
2022/08/27 02:12:19;;;;;;;31.83;28.53;;;21.10;99.90;;;;;;5034251;28;20187;-69
2022/08/27 02:14:44;;;;;;;28.13;25.33;;;21.10;99.90;;;;;;5034566;28;20282;-68
2022/08/27 02:17:11;;;;;;;32.07;28.97;;;21.00;99.90;;;;;;5035651;28;20195;-69
2022/08/27 02:19:37;;;;;;;32.20;29.00;;;21.00;99.90;;;;;;5034967;28;20175;-69
2022/08/27 02:22:02;;;;;;;31.10;28.00;;;21.10;99.90;;;;;;5034894;28;20413;-69
2022/08/27 02:24:28;;;;;;;28.13;25.50;;;21.20;99.90;;;;;;5035028;28;20457;-68
2022/08/27 02:26:55;;;;;;;36.60;32.80;;;21.20;99.90;;;;;;5034930;28;20232;-69
2022/08/27 02:29:21;;;;;;;30.13;27.30;;;21.20;99.90;;;;;;5034682;28;20540;-68
2022/08/27 02:31:47;;;;;;;31.53;28.20;;;21.30;99.90;;;;;;5034829;28;20394;-69
2022/08/27 02:34:12;;;;;;;27.93;25.07;;;21.40;99.90;;;;;;5033283;28;20926;-68
2022/08/27 02:36:38;;;;;;;30.20;27.20;;;21.40;99.90;;;;;;5034753;28;20194;-69
2022/08/27 02:39:05;;;;;;;28.07;25.07;;;21.40;99.90;;;;;;5034135;28;20177;-69
2022/08/27 02:41:31;;;;;;;32.20;28.97;;;21.40;99.90;;;;;;5034484;28;20171;-69
2022/08/27 02:43:56;;;;;;;29.53;26.77;;;21.50;99.90;;;;;;5034354;28;20454;-69
2022/08/27 02:46:22;;;;;;;32.23;29.17;;;21.50;99.90;;;;;;5034577;28;20620;-69
2022/08/27 02:48:48;;;;;;;29.90;27.00;;;21.60;99.90;;;;;;5032823;28;20214;-69
2022/08/27 02:51:14;;;;;;;29.53;26.80;;;21.60;99.90;;;;;;5034339;28;20202;-69
2022/08/27 02:53:39;;;;;;;30.20;27.20;;;21.70;99.90;;;;;;5034780;28;20414;-68
2022/08/27 02:56:06;;;;;;;30.83;27.83;;;21.60;99.90;;;;;;5034461;28;20219;-68
2022/08/27 02:58:32;;;;;;;26.67;23.87;;;21.60;99.90;;;;;;5032852;28;20257;-68
2022/08/27 03:01:01;;;;;;;26.93;24.20;;;21.60;99.90;;;;;;5034388;28;20406;-68
2022/08/27 03:03:28;;;;;;;27.03;24.50;;;21.60;99.90;;;;;;5033896;28;20496;-69
2022/08/27 03:05:56;;;;;;;29.90;26.90;;;21.60;99.90;;;;;;5033751;28;20406;-68
2022/08/27 03:08:23;;;;;;;30.00;27.13;;;21.70;99.90;;;;;;5033925;28;20468;-68
2022/08/27 03:10:50;;;;;;;31.43;27.17;;;21.40;99.90;;;;;;5033918;28;20417;-69
2022/08/27 03:13:16;;;;;;;27.80;25.20;;;21.40;99.90;;;;;;5033202;28;20905;-69
2022/08/27 03:15:41;;;;;;;34.30;30.80;;;21.40;99.90;;;;;;5033781;28;20446;-69
2022/08/27 03:18:20;;;;;;;31.43;28.07;;;21.30;99.90;;;;;;5034069;28;20313;-69
2022/08/27 03:20:51;;;;;;;35.27;31.87;;;21.40;99.90;;;;;;5033406;28;20288;-69
2022/08/27 03:23:21;;;;;;;32.63;29.40;;;21.50;99.90;;;;;;5028703;28;20458;-69
2022/08/27 03:25:53;;;;;;;29.53;26.60;;;21.60;99.90;;;;;;5025422;28;20410;-69
2022/08/27 03:28:32;;;;;;;29.23;26.43;;;21.60;99.90;;;;;;5033625;28;20475;-68
2022/08/27 03:31:04;;;;;;;26.97;24.47;;;21.70;99.90;;;;;;5033851;28;20397;-68
2022/08/27 03:33:33;;;;;;;31.30;28.13;;;21.70;99.90;;;;;;5032724;28;20431;-69
2022/08/27 03:35:59;;;;;;;24.93;22.60;;;21.60;99.90;;;;;;5033062;28;20538;-68
2022/08/27 03:38:25;;;;;;;26.03;23.70;;;21.50;99.90;;;;;;5033431;28;20476;-68
2022/08/27 03:40:51;;;;;;;26.50;24.00;;;21.50;99.90;;;;;;5032423;28;20189;-68
2022/08/27 03:43:19;;;;;;;28.33;25.63;;;21.60;99.90;;;;;;5033537;28;20445;-69
2022/08/27 03:45:45;;;;;;;32.30;28.87;;;21.60;99.90;;;;;;5033327;28;20456;-69
2022/08/27 03:48:12;;;;;;;29.37;26.40;;;21.50;99.90;;;;;;5033279;28;20444;-68
2022/08/27 03:50:40;;;;;;;23.73;21.60;;;21.40;99.90;;;;;;5032248;28;20598;-69
2022/08/27 03:53:06;;;;;;;31.90;28.60;;;21.30;99.90;;;;;;5033405;28;20405;-69
2022/08/27 03:55:32;;;;;;;23.30;21.20;;;21.30;99.90;;;;;;5033171;28;20398;-69
2022/08/27 03:57:58;;;;;;;25.77;23.07;;;21.40;99.90;;;;;;5033517;28;20430;-69
2022/08/27 04:00:24;;;;;;;24.20;21.87;;;21.40;99.90;;;;;;5033219;28;20163;-69
2022/08/27 04:02:50;;;;;;;21.20;19.20;;;21.40;99.90;;;;;;5034232;28;20179;-69
2022/08/27 04:05:16;;;;;;;22.43;20.13;;;21.40;99.90;;;;;;5033182;28;20456;-69
2022/08/27 04:07:43;;;;;;;21.97;19.93;;;21.40;99.90;;;;;;5032962;28;20820;-69
2022/08/27 04:10:10;;;;;;;23.10;21.10;;;21.40;99.90;;;;;;5032957;28;20171;-69
2022/08/27 04:12:37;;;;;;;21.97;19.80;;;21.50;99.90;;;;;;5033337;28;20408;-69
2022/08/27 04:15:04;;;;;;;19.50;17.60;;;21.50;99.90;;;;;;5033163;28;20402;-69
2022/08/27 04:17:30;;;;;;;24.10;21.80;;;21.50;99.90;;;;;;5032976;28;20972;-68
2022/08/27 04:19:58;;;;;;;26.47;23.67;;;21.40;99.90;;;;;;5032117;28;20406;-69
2022/08/27 04:22:24;;;;;;;27.67;24.87;;;21.20;99.90;;;;;;5032876;28;20898;-69
2022/08/27 04:24:50;;;;;;;30.53;27.67;;;21.20;99.90;;;;;;5032967;28;20568;-69
2022/08/27 04:27:16;;;;;;;29.30;26.23;;;21.20;99.90;;;;;;5032719;28;20427;-69
2022/08/27 04:29:41;;;;;;;32.37;29.30;;;21.20;99.90;;;;;;5033007;28;20258;-69
2022/08/27 04:32:07;;;;;;;28.70;26.00;;;21.10;99.90;;;;;;5032729;28;20211;-68
2022/08/27 04:34:33;;;;;;;28.50;25.90;;;21.20;99.90;;;;;;5031722;28;20171;-69
2022/08/27 04:37:00;;;;;;;28.50;25.60;;;21.20;99.90;;;;;;5032273;28;20199;-68
2022/08/27 04:39:27;;;;;;;30.60;27.70;;;21.20;99.90;;;;;;5032663;28;20410;-69
2022/08/27 04:41:55;;;;;;;36.63;32.83;;;21.10;99.90;;;;;;5032651;28;20505;-69
2022/08/27 04:44:21;;;;;;;39.73;35.63;;;21.10;99.90;;;;;;5032802;28;20480;-69
2022/08/27 04:46:49;;;;;;;31.10;28.00;;;21.20;99.90;;;;;;5031439;28;20949;-68
2022/08/27 04:49:15;;;;;;;37.93;34.27;;;21.10;99.90;;;;;;5033698;28;20390;-68
2022/08/27 04:51:41;;;;;;;36.17;32.63;;;21.00;99.90;;;;;;5032179;28;20394;-69
2022/08/27 04:54:08;;;;;;;34.50;30.83;;;20.80;99.90;;;;;;5032327;28;20413;-69
2022/08/27 04:56:35;;;;;;;45.30;40.50;;;20.90;99.90;;;;;;5032496;28;20484;-69
2022/08/27 04:59:03;;;;;;;35.77;32.40;;;21.00;99.90;;;;;;5032749;28;20416;-69
2022/08/27 05:01:30;;;;;;;36.10;32.50;;;21.10;99.90;;;;;;5034647;28;20412;-69
2022/08/27 05:03:57;;;;;;;37.17;33.57;;;21.20;99.90;;;;;;5034260;28;20552;-68
2022/08/27 05:06:23;;;;;;;38.27;34.10;;;21.20;99.90;;;;;;5036281;28;20852;-69
2022/08/27 05:08:50;;;;;;;37.57;33.87;;;21.20;99.90;;;;;;5036224;28;20899;-68
2022/08/27 05:11:17;;;;;;;39.33;35.27;;;21.20;99.90;;;;;;5036123;28;20460;-68
2022/08/27 05:13:44;;;;;;;37.27;33.67;;;21.20;99.90;;;;;;5036651;28;20406;-69
2022/08/27 05:16:13;;;;;;;38.23;33.93;;;21.10;99.90;;;;;;5036226;28;20449;-68
2022/08/27 05:18:40;;;;;;;36.13;32.43;;;21.20;99.90;;;;;;5035775;28;20484;-68
2022/08/27 05:21:06;;;;;;;36.37;32.87;;;21.30;99.90;;;;;;5035816;28;20409;-68
2022/08/27 05:23:33;;;;;;;38.57;34.73;;;21.30;99.90;;;;;;5036139;28;20453;-68
2022/08/27 05:25:59;;;;;;;42.17;36.77;;;21.30;99.90;;;;;;5036799;28;20502;-69
2022/08/27 05:28:27;;;;;;;41.10;36.90;;;21.30;99.90;;;;;;5036129;28;20453;-69
2022/08/27 05:31:01;;;;;;;34.33;31.00;;;21.20;99.90;;;;;;5036001;28;20266;-69
2022/08/27 05:33:27;;;;;;;33.37;30.13;;;21.30;99.90;;;;;;5035874;28;20398;-69
2022/08/27 05:35:54;;;;;;;37.97;33.97;;;21.30;99.90;;;;;;5035462;28;20460;-69
2022/08/27 05:38:21;;;;;;;36.97;31.53;;;21.10;99.90;;;;;;5034646;28;20274;-68
2022/08/27 05:40:47;;;;;;;38.50;34.80;;;21.10;99.90;;;;;;5035588;28;20418;-69
2022/08/27 05:43:17;;;;;;;35.43;31.80;;;21.00;99.90;;;;;;5035763;28;20454;-68
2022/08/27 05:45:45;;;;;;;35.50;31.90;;;21.00;99.90;;;;;;5035877;28;20418;-69
2022/08/27 05:48:12;;;;;;;34.90;31.10;;;21.00;99.90;;;;;;5036993;28;20485;-69
2022/08/27 05:50:42;;;;;;;34.03;30.50;;;20.90;99.90;;;;;;5035547;28;20406;-68
2022/08/27 05:53:09;;;;;;;40.57;36.43;;;21.00;99.90;;;;;;5035268;28;20787;-69
2022/08/27 05:55:40;;;;;;;37.63;33.90;;;21.10;99.90;;;;;;5035262;28;20418;-68
2022/08/27 05:58:06;;;;;;;42.33;37.80;;;21.00;99.90;;;;;;5035234;28;20422;-69
2022/08/27 06:03:19;;;;;;;36.47;32.70;;;21.20;99.90;;;;;;5035922;28;20445;-69
2022/08/27 06:05:45;;;;;;;37.00;32.97;;;21.20;99.90;;;;;;5035437;28;20903;-68
2022/08/27 06:08:10;;;;;;;39.00;34.53;;;21.10;99.90;;;;;;5034597;28;20511;-68
2022/08/27 06:10:39;;;;;;;37.30;33.50;;;21.10;99.90;;;;;;5035337;28;20172;-69
2022/08/27 06:13:05;;;;;;;35.20;31.60;;;21.10;99.90;;;;;;5034167;28;20203;-69
2022/08/27 06:15:31;;;;;;;40.10;34.10;;;21.00;99.90;;;;;;5032396;28;20842;-69
2022/08/27 06:17:57;;;;;;;37.57;33.63;;;20.90;99.90;;;;;;5026112;28;20551;-68
2022/08/27 06:20:22;;;;;;;38.93;34.80;;;20.80;99.90;;;;;;5015056;28;20462;-69
2022/08/27 06:22:48;;;;;;;35.50;31.97;;;20.90;99.90;;;;;;5014575;28;20168;-69
2022/08/27 06:25:13;;;;;;;34.90;31.30;;;20.90;99.90;;;;;;5014938;28;20203;-69
2022/08/27 06:27:39;;;;;;;38.93;35.00;;;20.80;99.90;;;;;;5033811;28;20198;-69
2022/08/27 06:30:05;;;;;;;43.27;38.67;;;20.80;99.90;;;;;;5034936;28;20167;-69
2022/08/27 06:32:31;;;;;;;34.00;30.57;;;21.00;99.90;;;;;;5034992;28;20179;-69
2022/08/27 06:34:56;;;;;;;40.77;36.70;;;21.10;99.90;;;;;;5034523;28;20414;-69
2022/08/27 06:37:22;;;;;;;38.10;34.10;;;21.10;99.90;;;;;;5034028;28;20262;-69
2022/08/27 06:39:47;;;;;;;37.80;33.90;;;21.10;99.90;;;;;;5033903;28;20644;-69
2022/08/27 06:42:13;;;;;;;37.17;33.67;;;21.10;99.90;;;;;;5034490;28;20202;-69
2022/08/27 06:44:40;;;;;;;43.07;35.67;;;21.00;99.90;;;;;;5031823;28;20226;-69
2022/08/27 06:47:05;;;;;;;42.70;38.20;;;21.00;99.90;;;;;;5034397;28;20806;-69
2022/08/27 06:49:32;;;;;;;36.30;32.73;;;20.90;99.90;;;;;;5034802;28;20408;-69
2022/08/27 06:51:58;;;;;;;35.87;32.30;;;20.80;99.90;;;;;;5034512;28;20517;-69
2022/08/27 06:54:24;;;;;;;39.33;35.63;;;21.10;99.90;;;;;;5034215;28;20421;-69
2022/08/27 06:56:49;;;;;;;40.23;35.97;;;21.10;99.90;;;;;;5034376;28;20680;-69
2022/08/27 06:59:17;;;;;;;40.03;36.07;;;21.20;99.90;;;;;;5034530;28;20410;-69
2022/08/27 07:01:46;;;;;;;37.17;33.53;;;21.20;99.90;;;;;;5033853;28;20518;-68
2022/08/27 07:04:16;;;;;;;37.70;34.17;;;21.10;99.90;;;;;;5033955;28;20453;-69
2022/08/27 07:06:41;;;;;;;39.00;34.97;;;21.20;99.90;;;;;;5031761;28;20415;-68
2022/08/27 07:09:08;;;;;;;39.00;34.93;;;21.20;99.90;;;;;;5034104;28;20729;-68
2022/08/27 07:11:34;;;;;;;37.70;34.03;;;21.20;99.90;;;;;;5033354;28;20689;-71
2022/08/27 07:14:00;;;;;;;33.17;29.70;;;21.40;99.90;;;;;;5033539;28;20429;-68
2022/08/27 07:16:26;;;;;;;35.53;32.10;;;21.60;99.90;;;;;;5034307;28;20536;-69
2022/08/27 07:18:54;;;;;;;33.43;29.87;;;21.60;99.90;;;;;;5034454;28;20637;-70
2022/08/27 07:21:21;;;;;;;41.80;33.50;;;21.80;99.90;;;;;;5034043;28;20817;-69
2022/08/27 07:23:49;;;;;;;35.53;31.77;;;21.80;99.90;;;;;;5033878;28;20545;-69
2022/08/27 07:26:15;;;;;;;33.43;30.10;;;21.80;99.90;;;;;;5033209;28;20406;-70
2022/08/27 07:28:42;;;;;;;35.53;32.03;;;21.70;99.90;;;;;;5033203;28;20422;-69
2022/08/27 07:31:11;;;;;;;32.80;29.30;;;21.60;99.90;;;;;;5033659;28;20454;-69
2022/08/27 07:33:37;;;;;;;36.40;32.63;;;21.50;99.90;;;;;;5034735;28;20414;-69
2022/08/27 07:36:06;;;;;;;35.13;31.30;;;21.60;99.90;;;;;;5032104;28;20425;-69
2022/08/27 07:38:33;;;;;;;32.30;28.90;;;21.40;99.90;;;;;;5033468;28;20433;-69
2022/08/27 07:40:59;;;;;;;33.23;29.83;;;21.20;99.90;;;;;;5033819;28;20402;-69
2022/08/27 07:46:08;;;;;;;33.67;30.13;;;21.20;99.90;;;;;;5033132;28;20181;-69
2022/08/27 07:48:34;;;;;;;31.90;28.80;;;21.40;99.90;;;;;;5033485;28;20536;-69
2022/08/27 07:51:04;;;;;;;33.37;29.97;;;21.40;99.90;;;;;;5033444;28;20175;-69
2022/08/27 07:53:31;;;;;;;33.23;30.23;;;21.70;99.90;;;;;;5034290;28;20167;-69
2022/08/27 07:56:04;;;;;;;34.00;30.60;;;21.60;99.90;;;;;;5033174;28;20414;-70
2022/08/27 07:58:30;;;;;;;37.60;33.93;;;21.60;99.90;;;;;;5032639;28;20478;-69
2022/08/27 08:00:56;;;;;;;36.67;33.10;;;21.40;99.90;;;;;;5033126;28;20414;-69
2022/08/27 08:03:21;;;;;;;35.30;31.90;;;21.40;99.90;;;;;;5032651;28;20199;-69
2022/08/27 08:05:48;;;;;;;35.60;32.23;;;21.30;99.90;;;;;;5032730;28;20184;-69
2022/08/27 08:08:14;;;;;;;35.03;31.63;;;21.10;99.90;;;;;;5033120;28;20195;-69
2022/08/27 08:10:40;;;;;;;35.30;31.70;;;21.20;99.90;;;;;;5033219;28;20405;-69
2022/08/27 08:13:06;;;;;;;34.23;30.77;;;21.20;99.90;;;;;;5033094;28;20774;-69
2022/08/27 08:15:33;;;;;;;35.43;31.93;;;21.40;99.90;;;;;;5031506;28;20167;-69
2022/08/27 08:17:58;;;;;;;32.07;28.83;;;21.40;99.90;;;;;;5032609;28;20430;-69
2022/08/27 08:20:24;;;;;;;41.27;37.03;;;21.40;99.90;;;;;;5032862;28;20601;-69
2022/08/27 08:22:49;;;;;;;34.37;31.10;;;21.40;99.90;;;;;;5032424;28;20635;-69
2022/08/27 08:25:16;;;;;;;33.37;30.00;;;21.30;99.90;;;;;;5032765;28;20207;-69
2022/08/27 08:27:42;;;;;;;37.87;34.07;;;21.40;99.90;;;;;;5032798;28;20191;-69
2022/08/27 08:30:09;;;;;;;36.93;33.33;;;21.40;99.90;;;;;;5032744;28;20467;-69
2022/08/27 08:32:35;;;;;;;35.33;31.97;;;21.40;99.90;;;;;;5032704;28;20176;-69
2022/08/27 08:35:02;;;;;;;37.30;33.87;;;21.30;99.90;;;;;;5032639;28;20414;-69
2022/08/27 08:37:28;;;;;;;35.50;31.70;;;21.20;99.90;;;;;;5036477;28;20438;-69
2022/08/27 08:39:53;;;;;;;36.43;32.53;;;21.30;99.90;;;;;;5036959;28;20895;-69
2022/08/27 08:42:30;;;;;;;35.03;31.53;;;21.20;99.90;;;;;;5036722;28;20289;-69
2022/08/27 08:44:58;;;;;;;35.33;32.03;;;21.10;99.90;;;;;;5035261;28;20202;-70
2022/08/27 08:47:32;;;;;;;40.17;35.73;;;21.20;99.90;;;;;;5036547;28;21040;-69
2022/08/27 08:50:18;;;;;;;40.17;36.10;;;21.30;99.90;;;;;;5036872;28;20427;-69
2022/08/27 08:52:47;;;;;;;44.97;40.17;;;21.40;99.90;;;;;;5036333;28;20410;-69
2022/08/27 08:55:35;;;;;;;41.87;37.67;;;21.30;99.90;;;;;;5036740;28;20410;-69
2022/08/27 08:58:28;;;;;;;38.03;34.23;;;21.30;99.90;;;;;;5036684;28;20429;-69
2022/08/27 09:00:58;;;;;;;37.40;33.40;;;21.30;99.90;;;;;;5036621;28;20405;-69
2022/08/27 09:03:25;;;;;;;42.77;38.63;;;21.20;99.90;;;;;;5036578;28;20521;-69
2022/08/27 09:06:18;;;;;;;39.67;35.40;;;21.30;99.90;;;;;;5036146;28;20432;-69
2022/08/27 09:08:43;;;;;;;39.10;35.10;;;21.20;99.90;;;;;;5032128;28;20449;-69
2022/08/27 09:11:26;;;;;;;39.60;35.80;;;21.10;99.90;;;;;;5033614;28;20788;-69
2022/08/27 09:13:57;;;;;;;37.57;33.50;;;21.10;99.90;;;;;;5035967;28;20212;-69
2022/08/27 09:16:22;;;;;;;39.10;35.20;;;21.00;99.90;;;;;;5036237;28;20813;-69
2022/08/27 09:18:49;;;;;;;36.70;32.73;;;21.10;99.90;;;;;;5035987;28;20520;-69
2022/08/27 09:21:24;;;;;;;36.03;32.33;;;20.90;99.90;;;;;;5035984;28;20554;-69
2022/08/27 09:23:50;;;;;;;36.50;32.90;;;21.00;99.90;;;;;;5036123;28;20442;-69
2022/08/27 09:26:18;;;;;;;32.63;29.40;;;21.10;99.90;;;;;;5035247;28;20406;-70
2022/08/27 09:31:28;;;;;;;21.20;19.30;;;20.90;99.90;;;;;;5016434;28;20537;-69
2022/08/27 09:33:55;;;;;;;20.13;18.23;;;20.50;99.90;;;;;;5016409;28;20983;-69
2022/08/27 09:36:20;;;;;;;23.03;20.83;;;20.50;99.90;;;;;;5016037;28;20481;-69
2022/08/27 09:38:54;;;;;;;19.70;18.00;;;20.70;99.90;;;;;;5016160;28;20431;-69
2022/08/27 09:41:26;;;;;;;21.20;19.20;;;20.90;99.90;;;;;;5016303;28;20195;-69
2022/08/27 09:44:15;;;;;;;20.70;18.63;;;21.10;99.90;;;;;;5015809;28;20947;-69
2022/08/27 09:46:53;;;;;;;17.87;16.33;;;21.00;99.90;;;;;;5015764;28;20911;-69
2022/08/27 09:49:18;;;;;;;18.83;17.23;;;21.00;99.90;;;;;;5016623;28;20418;-69
2022/08/27 09:51:46;;;;;;;18.00;16.50;;;20.90;99.90;;;;;;5016455;28;20421;-69
2022/08/27 09:54:37;;;;;;;18.70;16.90;;;20.80;99.90;;;;;;5016671;28;20266;-68
2022/08/27 09:57:05;;;;;;;18.33;16.70;;;20.90;99.90;;;;;;5021819;28;20442;-68
2022/08/27 09:59:38;;;;;;;20.00;18.10;;;21.00;99.90;;;;;;5035181;28;20966;-69
2022/08/27 10:02:15;;;;;;;17.77;16.27;;;21.20;99.90;;;;;;5035720;28;20398;-69
2022/08/27 10:04:45;;;;;;;16.63;15.13;;;21.20;99.90;;;;;;5035364;28;20777;-69
2022/08/27 10:07:29;;;;;;;16.80;15.40;;;21.40;99.90;;;;;;5035391;28;20422;-69
2022/08/27 10:10:09;;;;;;;14.87;13.70;;;21.60;99.90;;;;;;5035182;28;20386;-70
2022/08/27 10:12:41;;;;;;;17.60;16.20;;;21.90;99.90;;;;;;5034952;28;20394;-69
2022/08/27 10:15:08;;;;;;;16.97;15.37;;;22.00;99.90;;;;;;5033953;28;20457;-68
2022/08/27 10:17:42;;;;;;;16.80;15.30;;;22.10;99.90;;;;;;5034868;28;20507;-69
2022/08/27 10:20:28;;;;;;;17.07;15.57;;;22.40;99.90;;;;;;5035201;28;20391;-69
2022/08/27 10:23:04;;;;;;;16.30;14.90;;;22.60;99.90;;;;;;5034262;28;20413;-69
2022/08/27 10:25:36;;;;;;;18.07;16.63;;;22.90;99.90;;;;;;5034848;28;20453;-70
2022/08/27 10:28:09;;;;;;;15.67;14.47;;;22.70;99.90;;;;;;5035034;28;20422;-69
2022/08/27 10:31:00;;;;;;;15.50;14.03;;;22.70;99.90;;;;;;5033995;28;20536;-69
2022/08/27 10:33:50;;;;;;;15.97;14.50;;;22.90;99.90;;;;;;5035019;28;20403;-69
2022/08/27 10:36:25;;;;;;;16.83;15.23;;;22.70;99.90;;;;;;5034471;28;20940;-69
2022/08/27 10:39:15;;;;;;;16.30;14.90;;;22.60;99.90;;;;;;5034965;28;20378;-69
2022/08/27 10:41:47;;;;;;;17.13;15.63;;;22.70;99.90;;;;;;5035109;28;20382;-69
2022/08/27 10:44:29;;;;;;;18.87;17.07;;;22.80;99.90;;;;;;5035283;28;20918;-69
2022/08/27 10:46:59;;;;;;;18.63;16.93;;;22.60;99.90;;;;;;5034201;28;20532;-69
2022/08/27 10:49:49;;;;;;;21.00;19.10;;;22.50;99.90;;;;;;5034675;28;20429;-69
2022/08/27 10:52:23;;;;;;;20.57;18.77;;;22.10;99.90;;;;;;5034885;28;20699;-69
2022/08/27 10:55:18;;;;;;;21.83;19.87;;;22.20;99.90;;;;;;5034816;28;20419;-69
2022/08/27 10:58:05;;;;;;;23.30;21.20;;;22.50;99.90;;;;;;5034441;28;20422;-70
2022/08/27 11:00:39;;;;;;;21.27;19.20;;;22.60;99.90;;;;;;5034045;28;20413;-69
2022/08/27 11:03:10;;;;;;;21.77;19.93;;;22.70;99.90;;;;;;5034520;28;20449;-69
2022/08/27 11:05:44;;;;;;;19.93;18.03;;;22.90;99.90;;;;;;5034173;28;20387;-69
2022/08/27 11:08:36;;;;;;;21.27;19.30;;;22.60;99.90;;;;;;5034113;28;20409;-68
2022/08/27 11:11:08;;;;;;;21.00;19.13;;;22.50;99.90;;;;;;5034156;28;20758;-69
2022/08/27 11:13:46;;;;;;;21.53;19.53;;;22.20;99.90;;;;;;5034030;28;20410;-69
2022/08/27 11:16:31;;;;;;;24.90;22.50;;;22.20;99.90;;;;;;5032722;28;20514;-70
2022/08/27 11:19:22;;;;;;;24.30;22.10;;;22.30;99.90;;;;;;5034176;28;20382;-69
2022/08/27 11:22:15;;;;;;;21.53;19.67;;;22.00;99.90;;;;;;5033077;28;20422;-69
2022/08/27 11:25:20;;;;;;;24.23;21.80;;;21.90;99.90;;;;;;5034105;28;20438;-69
2022/08/27 11:27:48;;;;;;;25.23;22.60;;;22.10;99.90;;;;;;5012864;28;20945;-69
2022/08/27 11:30:44;;;;;;;24.70;22.37;;;22.30;99.90;;;;;;5033692;28;20398;-69
2022/08/27 11:33:46;;;;;;;23.23;21.07;;;22.60;99.90;;;;;;5033784;28;20378;-69
2022/08/27 11:36:23;;;;;;;23.37;21.20;;;22.70;99.90;;;;;;5033610;28;20393;-69
2022/08/27 11:39:26;;;;;;;23.03;20.97;;;22.40;99.90;;;;;;5033731;28;20529;-69
2022/08/27 11:41:55;;;;;;;23.27;21.07;;;22.10;99.90;;;;;;5033240;28;20406;-69
2022/08/27 11:44:24;;;;;;;25.97;23.50;;;22.00;99.90;;;;;;5033537;28;20454;-68
2022/08/27 11:49:28;;;;;;;22.90;20.70;;;22.50;99.90;;;;;;5054809;23;20559;-69
2022/08/27 11:52:04;;;;;;;23.77;21.50;;;22.70;99.90;;;;;;5033504;28;20879;-69
2022/08/27 11:54:45;;;;;;;23.50;21.40;;;23.00;99.90;;;;;;5048775;28;20405;-69
2022/08/27 11:57:32;;;;;;;20.47;18.67;;;23.10;99.90;;;;;;5033387;28;20457;-68
2022/08/27 12:00:09;;;;;;;23.73;21.33;;;23.00;99.90;;;;;;5033158;28;20409;-68
2022/08/27 12:02:35;;;;;;;24.50;22.20;;;23.10;99.90;;;;;;5028243;28;20418;-68
2022/08/27 12:05:36;;;;;;;26.37;24.03;;;23.10;99.90;;;;;;5014842;28;20461;-68
2022/08/27 12:08:29;;;;;;;24.60;22.33;;;23.20;99.90;;;;;;4994974;28;20195;-68
2022/08/27 12:11:34;;;;;;;22.83;20.73;;;23.40;99.90;;;;;;5012535;28;20388;-68
2022/08/27 12:14:33;;;;;;;23.50;21.20;;;23.50;99.90;;;;;;5014391;28;20445;-68
2022/08/27 12:17:09;;;;;;;21.03;19.10;;;23.60;99.90;;;;;;5030621;28;20413;-69
2022/08/27 12:19:41;;;;;;;21.77;19.77;;;23.60;99.90;;;;;;5033434;28;20385;-68
2022/08/27 12:23:38;;;;;;;24.03;21.83;;;23.70;99.90;;;;;;5032007;28;20465;-68
2022/08/27 12:25:21;;;;;;;25.00;22.70;;;23.40;99.90;;;;;;5032843;28;20457;-69
2022/08/27 12:27:56;;;;;;;24.10;21.90;;;23.40;99.90;;;;;;5033242;28;20422;-69
2022/08/27 12:30:37;;;;;;;22.67;20.53;;;23.40;99.90;;;;;;5032855;28;20456;-69
2022/08/27 12:33:31;;;;;;;23.10;21.00;;;23.40;99.90;;;;;;5032433;28;20400;-68
2022/08/27 12:36:24;;;;;;;24.33;21.93;;;23.50;99.90;;;;;;5033072;28;20464;-68
2022/08/27 12:38:53;;;;;;;25.33;23.10;;;23.50;99.90;;;;;;5032165;28;20800;-68
2022/08/27 12:41:38;;;;;;;25.40;23.10;;;23.30;99.90;;;;;;5033109;28;20406;-68
2022/08/27 12:44:09;;;;;;;25.30;23.00;;;23.30;99.90;;;;;;5033034;28;20847;-68
2022/08/27 12:47:06;;;;;;;28.30;24.13;;;23.20;99.90;;;;;;5033215;28;20963;-68
2022/08/27 12:49:42;;;;;;;26.70;24.30;;;22.60;99.90;;;;;;5032489;28;20807;-68
2022/08/27 12:52:45;;;;;;;26.83;23.97;;;22.80;99.90;;;;;;5032258;28;20815;-69
2022/08/27 12:55:16;;;;;;;25.17;22.77;;;22.70;99.90;;;;;;5030989;28;21001;-70
2022/08/27 12:58:00;;;;;;;26.33;23.57;;;22.20;99.90;;;;;;5032639;28;20761;-69